sensor_id;sensor_type;location;lat;lon;timestamp;P1;durP1;ratioP1;P2;durP2;ratioP2
74849;SDS011;63397;47.480;19.238;2024-03-23T00:53:47;15.85;;;7.55;;
74849;SDS011;63397;47.480;19.238;2024-03-23T00:56:48;17.42;;;7.53;;
74849;SDS011;63397;47.480;19.238;2024-03-23T00:59:50;19.25;;;6.78;;
74849;SDS011;63397;47.480;19.238;2024-03-23T01:02:51;17.37;;;6.80;;
74849;SDS011;63397;47.480;19.238;2024-03-23T01:05:53;13.83;;;6.30;;
74849;SDS011;63397;47.480;19.238;2024-03-23T01:08:55;20.15;;;7.70;;
74849;SDS011;63397;47.480;19.238;2024-03-23T01:11:56;16.20;;;7.45;;
74849;SDS011;63397;47.480;19.238;2024-03-23T01:14:58;16.17;;;6.05;;
74849;SDS011;63397;47.480;19.238;2024-03-23T01:17:59;18.43;;;6.87;;
74849;SDS011;63397;47.480;19.238;2024-03-23T01:21:00;18.57;;;6.47;;
74849;SDS011;63397;47.480;19.238;2024-03-23T01:24:02;17.95;;;6.68;;
74849;SDS011;63397;47.480;19.238;2024-03-23T01:27:03;21.23;;;7.07;;
74849;SDS011;63397;47.480;19.238;2024-03-23T01:30:05;18.15;;;6.72;;
74849;SDS011;63397;47.480;19.238;2024-03-23T01:33:06;16.97;;;7.47;;
74849;SDS011;63397;47.480;19.238;2024-03-23T01:36:09;21.00;;;6.87;;
74849;SDS011;63397;47.480;19.238;2024-03-23T01:39:11;18.92;;;6.15;;
74849;SDS011;63397;47.480;19.238;2024-03-23T01:42:12;16.75;;;6.25;;
74849;SDS011;63397;47.480;19.238;2024-03-23T01:45:14;15.70;;;6.80;;
74849;SDS011;63397;47.480;19.238;2024-03-23T01:48:15;16.53;;;6.07;;
74849;SDS011;63397;47.480;19.238;2024-03-23T01:51:17;15.73;;;6.83;;
74849;SDS011;63397;47.480;19.238;2024-03-23T01:54:18;17.40;;;7.10;;
74849;SDS011;63397;47.480;19.238;2024-03-23T01:57:19;17.20;;;7.32;;
74849;SDS011;63397;47.480;19.238;2024-03-23T02:00:23;17.10;;;6.80;;
74849;SDS011;63397;47.480;19.238;2024-03-23T02:03:25;15.97;;;7.37;;
74849;SDS011;63397;47.480;19.238;2024-03-23T02:06:27;19.87;;;7.60;;
74849;SDS011;63397;47.480;19.238;2024-03-23T02:09:29;17.48;;;7.68;;
74849;SDS011;63397;47.480;19.238;2024-03-23T02:12:31;18.73;;;7.13;;
74849;SDS011;63397;47.480;19.238;2024-03-23T02:15:32;20.85;;;7.47;;
74849;SDS011;63397;47.480;19.238;2024-03-23T02:18:35;15.30;;;6.63;;
74849;SDS011;63397;47.480;19.238;2024-03-23T02:21:36;18.63;;;7.63;;
74849;SDS011;63397;47.480;19.238;2024-03-23T02:24:38;18.25;;;6.85;;
74849;SDS011;63397;47.480;19.238;2024-03-23T02:27:39;21.00;;;7.32;;
74849;SDS011;63397;47.480;19.238;2024-03-23T02:30:41;18.50;;;7.90;;
74849;SDS011;63397;47.480;19.238;2024-03-23T02:33:42;20.77;;;7.30;;
74849;SDS011;63397;47.480;19.238;2024-03-23T02:36:43;21.17;;;7.13;;
74849;SDS011;63397;47.480;19.238;2024-03-23T02:39:45;19.15;;;7.22;;
74849;SDS011;63397;47.480;19.238;2024-03-23T02:42:47;16.58;;;6.82;;
74849;SDS011;63397;47.480;19.238;2024-03-23T02:45:48;17.30;;;7.05;;
74849;SDS011;63397;47.480;19.238;2024-03-23T02:48:49;15.53;;;5.67;;
74849;SDS011;63397;47.480;19.238;2024-03-23T02:51:51;19.23;;;7.47;;
74849;SDS011;63397;47.480;19.238;2024-03-23T02:54:52;17.80;;;7.85;;
74849;SDS011;63397;47.480;19.238;2024-03-23T02:57:54;17.77;;;7.63;;
74849;SDS011;63397;47.480;19.238;2024-03-23T03:00:56;17.73;;;6.55;;
74849;SDS011;63397;47.480;19.238;2024-03-23T03:03:57;17.17;;;6.77;;
74849;SDS011;63397;47.480;19.238;2024-03-23T03:07:00;13.00;;;6.60;;
74849;SDS011;63397;47.480;19.238;2024-03-23T03:10:01;17.90;;;7.05;;
74849;SDS011;63397;47.480;19.238;2024-03-23T03:13:03;16.15;;;6.50;;
74849;SDS011;63397;47.480;19.238;2024-03-23T03:16:08;16.23;;;6.15;;
74849;SDS011;63397;47.480;19.238;2024-03-23T03:19:09;16.53;;;5.77;;
74849;SDS011;63397;47.480;19.238;2024-03-23T03:22:12;11.40;;;5.67;;
74849;SDS011;63397;47.480;19.238;2024-03-23T03:25:13;11.75;;;5.95;;
74849;SDS011;63397;47.480;19.238;2024-03-23T03:28:15;12.35;;;5.82;;
74849;SDS011;63397;47.480;19.238;2024-03-23T03:31:16;16.30;;;5.70;;
74849;SDS011;63397;47.480;19.238;2024-03-23T03:34:18;15.97;;;6.63;;
74849;SDS011;63397;47.480;19.238;2024-03-23T03:37:19;13.30;;;5.83;;
74849;SDS011;63397;47.480;19.238;2024-03-23T03:40:20;15.07;;;5.63;;
74849;SDS011;63397;47.480;19.238;2024-03-23T03:43:22;13.70;;;6.15;;
74849;SDS011;63397;47.480;19.238;2024-03-23T03:46:23;12.82;;;5.25;;
74849;SDS011;63397;47.480;19.238;2024-03-23T03:49:26;15.97;;;5.97;;
74849;SDS011;63397;47.480;19.238;2024-03-23T03:52:27;14.43;;;6.17;;
74849;SDS011;63397;47.480;19.238;2024-03-23T03:55:29;15.23;;;5.93;;
74849;SDS011;63397;47.480;19.238;2024-03-23T03:58:32;15.40;;;7.07;;
74849;SDS011;63397;47.480;19.238;2024-03-23T04:01:33;11.00;;;5.88;;
74849;SDS011;63397;47.480;19.238;2024-03-23T04:04:35;15.70;;;6.03;;
74849;SDS011;63397;47.480;19.238;2024-03-23T04:07:36;16.17;;;6.03;;
74849;SDS011;63397;47.480;19.238;2024-03-23T04:10:37;16.15;;;6.90;;
74849;SDS011;63397;47.480;19.238;2024-03-23T04:13:38;13.00;;;5.82;;
74849;SDS011;63397;47.480;19.238;2024-03-23T04:16:42;13.13;;;6.53;;
74849;SDS011;63397;47.480;19.238;2024-03-23T04:19:44;17.43;;;5.57;;
74849;SDS011;63397;47.480;19.238;2024-03-23T04:22:45;12.70;;;5.43;;
74849;SDS011;63397;47.480;19.238;2024-03-23T04:25:46;20.40;;;5.72;;
74849;SDS011;63397;47.480;19.238;2024-03-23T04:28:48;17.30;;;6.53;;
74849;SDS011;63397;47.480;19.238;2024-03-23T04:31:49;17.52;;;6.05;;
74849;SDS011;63397;47.480;19.238;2024-03-23T04:34:50;14.93;;;6.17;;
74849;SDS011;63397;47.480;19.238;2024-03-23T04:37:51;18.43;;;8.07;;
74849;SDS011;63397;47.480;19.238;2024-03-23T04:40:59;24.05;;;8.35;;
74849;SDS011;63397;47.480;19.238;2024-03-23T04:44:01;22.95;;;10.20;;
74849;SDS011;63397;47.480;19.238;2024-03-23T04:47:02;30.98;;;11.65;;
74849;SDS011;63397;47.480;19.238;2024-03-23T04:50:04;31.77;;;12.47;;
74849;SDS011;63397;47.480;19.238;2024-03-23T04:53:06;28.77;;;10.37;;
74849;SDS011;63397;47.480;19.238;2024-03-23T04:56:07;21.38;;;8.10;;
74849;SDS011;63397;47.480;19.238;2024-03-23T04:59:08;17.55;;;7.18;;
74849;SDS011;63397;47.480;19.238;2024-03-23T05:02:11;17.83;;;6.40;;
74849;SDS011;63397;47.480;19.238;2024-03-23T05:05:12;11.93;;;6.03;;
74849;SDS011;63397;47.480;19.238;2024-03-23T05:08:14;19.43;;;7.33;;
74849;SDS011;63397;47.480;19.238;2024-03-23T05:11:17;18.02;;;7.38;;
74849;SDS011;63397;47.480;19.238;2024-03-23T05:14:18;20.60;;;7.00;;
74849;SDS011;63397;47.480;19.238;2024-03-23T05:17:20;16.88;;;6.97;;
74849;SDS011;63397;47.480;19.238;2024-03-23T05:20:22;15.17;;;6.60;;
74849;SDS011;63397;47.480;19.238;2024-03-23T05:23:24;14.53;;;6.33;;
74849;SDS011;63397;47.480;19.238;2024-03-23T05:26:25;18.33;;;7.75;;
74849;SDS011;63397;47.480;19.238;2024-03-23T05:29:27;24.60;;;7.15;;
74849;SDS011;63397;47.480;19.238;2024-03-23T05:32:30;17.92;;;7.45;;
74849;SDS011;63397;47.480;19.238;2024-03-23T05:35:32;20.10;;;8.40;;
74849;SDS011;63397;47.480;19.238;2024-03-23T05:38:34;20.47;;;6.97;;
74849;SDS011;63397;47.480;19.238;2024-03-23T05:41:35;15.52;;;6.75;;
74849;SDS011;63397;47.480;19.238;2024-03-23T05:44:38;19.92;;;8.18;;
74849;SDS011;63397;47.480;19.238;2024-03-23T05:47:39;17.25;;;7.10;;
74849;SDS011;63397;47.480;19.238;2024-03-23T05:50:41;18.43;;;7.23;;
74849;SDS011;63397;47.480;19.238;2024-03-23T05:53:42;19.27;;;8.50;;
74849;SDS011;63397;47.480;19.238;2024-03-23T05:56:45;20.02;;;7.20;;
74849;SDS011;63397;47.480;19.238;2024-03-23T05:59:46;19.38;;;8.05;;
74849;SDS011;63397;47.480;19.238;2024-03-23T06:02:49;20.17;;;8.45;;
74849;SDS011;63397;47.480;19.238;2024-03-23T06:05:51;15.43;;;7.47;;
74849;SDS011;63397;47.480;19.238;2024-03-23T06:08:52;20.87;;;7.63;;
74849;SDS011;63397;47.480;19.238;2024-03-23T06:11:54;16.30;;;7.00;;
74849;SDS011;63397;47.480;19.238;2024-03-23T06:14:56;20.70;;;7.45;;
74849;SDS011;63397;47.480;19.238;2024-03-23T06:17:59;19.65;;;7.05;;
74849;SDS011;63397;47.480;19.238;2024-03-23T06:21:00;17.55;;;8.48;;
74849;SDS011;63397;47.480;19.238;2024-03-23T06:24:02;21.50;;;7.97;;
74849;SDS011;63397;47.480;19.238;2024-03-23T06:27:03;16.23;;;7.85;;
74849;SDS011;63397;47.480;19.238;2024-03-23T06:30:05;16.73;;;6.15;;
74849;SDS011;63397;47.480;19.238;2024-03-23T06:33:07;16.27;;;8.02;;
74849;SDS011;63397;47.480;19.238;2024-03-23T06:36:09;19.38;;;7.97;;
74849;SDS011;63397;47.480;19.238;2024-03-23T06:39:11;19.43;;;8.03;;
74849;SDS011;63397;47.480;19.238;2024-03-23T06:42:17;19.25;;;7.50;;
74849;SDS011;63397;47.480;19.238;2024-03-23T06:45:18;23.35;;;7.53;;
74849;SDS011;63397;47.480;19.238;2024-03-23T06:48:24;17.30;;;7.45;;
74849;SDS011;63397;47.480;19.238;2024-03-23T06:51:26;17.98;;;7.60;;
74849;SDS011;63397;47.480;19.238;2024-03-23T06:54:29;19.67;;;8.10;;
74849;SDS011;63397;47.480;19.238;2024-03-23T06:57:30;15.90;;;6.97;;
74849;SDS011;63397;47.480;19.238;2024-03-23T07:00:32;18.48;;;8.30;;
74849;SDS011;63397;47.480;19.238;2024-03-23T07:03:33;21.95;;;8.38;;
74849;SDS011;63397;47.480;19.238;2024-03-23T07:06:35;20.83;;;8.60;;
74849;SDS011;63397;47.480;19.238;2024-03-23T07:09:45;16.73;;;7.20;;
74849;SDS011;63397;47.480;19.238;2024-03-23T07:12:46;20.33;;;7.72;;
74849;SDS011;63397;47.480;19.238;2024-03-23T07:15:51;19.00;;;7.90;;
74849;SDS011;63397;47.480;19.238;2024-03-23T07:18:52;19.15;;;7.60;;
74849;SDS011;63397;47.480;19.238;2024-03-23T07:21:53;17.92;;;8.02;;
74849;SDS011;63397;47.480;19.238;2024-03-23T07:24:55;18.03;;;7.70;;
74849;SDS011;63397;47.480;19.238;2024-03-23T07:27:57;18.50;;;7.82;;
74849;SDS011;63397;47.480;19.238;2024-03-23T07:34:05;18.17;;;7.97;;
74849;SDS011;63397;47.480;19.238;2024-03-23T07:37:07;18.73;;;8.32;;
74849;SDS011;63397;47.480;19.238;2024-03-23T07:40:08;18.63;;;7.90;;
74849;SDS011;63397;47.480;19.238;2024-03-23T07:43:10;20.40;;;8.05;;
74849;SDS011;63397;47.480;19.238;2024-03-23T07:46:11;21.33;;;8.50;;
74849;SDS011;63397;47.480;19.238;2024-03-23T07:49:13;17.40;;;7.68;;
74849;SDS011;63397;47.480;19.238;2024-03-23T07:52:14;18.25;;;8.27;;
74849;SDS011;63397;47.480;19.238;2024-03-23T07:55:16;17.77;;;7.87;;
74849;SDS011;63397;47.480;19.238;2024-03-23T07:58:17;17.63;;;7.78;;
74849;SDS011;63397;47.480;19.238;2024-03-23T08:01:18;20.10;;;6.95;;
74849;SDS011;63397;47.480;19.238;2024-03-23T08:04:19;15.27;;;7.25;;
74849;SDS011;63397;47.480;19.238;2024-03-23T08:07:21;16.38;;;7.05;;
74849;SDS011;63397;47.480;19.238;2024-03-23T08:10:22;17.27;;;7.77;;
74849;SDS011;63397;47.480;19.238;2024-03-23T08:13:26;15.35;;;7.05;;
74849;SDS011;63397;47.480;19.238;2024-03-23T08:16:28;15.80;;;6.40;;
74849;SDS011;63397;47.480;19.238;2024-03-23T08:19:29;13.00;;;5.75;;
74849;SDS011;63397;47.480;19.238;2024-03-23T08:22:33;13.65;;;6.50;;
74849;SDS011;63397;47.480;19.238;2024-03-23T08:25:34;16.87;;;7.60;;
74849;SDS011;63397;47.480;19.238;2024-03-23T08:28:36;17.85;;;6.97;;
74849;SDS011;63397;47.480;19.238;2024-03-23T08:31:37;14.40;;;6.78;;
74849;SDS011;63397;47.480;19.238;2024-03-23T08:34:38;13.32;;;6.60;;
74849;SDS011;63397;47.480;19.238;2024-03-23T08:37:40;14.98;;;6.97;;
74849;SDS011;63397;47.480;19.238;2024-03-23T08:40:41;14.00;;;6.50;;
74849;SDS011;63397;47.480;19.238;2024-03-23T08:43:42;13.98;;;6.68;;
74849;SDS011;63397;47.480;19.238;2024-03-23T08:46:47;13.07;;;6.78;;
74849;SDS011;63397;47.480;19.238;2024-03-23T08:49:51;14.45;;;6.72;;
74849;SDS011;63397;47.480;19.238;2024-03-23T08:52:52;13.15;;;6.10;;
74849;SDS011;63397;47.480;19.238;2024-03-23T08:55:57;11.50;;;5.90;;
74849;SDS011;63397;47.480;19.238;2024-03-23T08:58:58;13.93;;;6.63;;
74849;SDS011;63397;47.480;19.238;2024-03-23T09:01:59;12.10;;;5.90;;
74849;SDS011;63397;47.480;19.238;2024-03-23T09:05:01;12.68;;;6.82;;
74849;SDS011;63397;47.480;19.238;2024-03-23T09:08:06;11.60;;;6.10;;
74849;SDS011;63397;47.480;19.238;2024-03-23T09:11:08;11.00;;;5.80;;
74849;SDS011;63397;47.480;19.238;2024-03-23T09:14:10;11.75;;;5.80;;
74849;SDS011;63397;47.480;19.238;2024-03-23T09:17:11;11.43;;;5.85;;
74849;SDS011;63397;47.480;19.238;2024-03-23T09:20:14;11.32;;;5.80;;
74849;SDS011;63397;47.480;19.238;2024-03-23T09:23:15;12.68;;;6.35;;
74849;SDS011;63397;47.480;19.238;2024-03-23T09:26:16;10.83;;;5.80;;
74849;SDS011;63397;47.480;19.238;2024-03-23T09:29:18;11.80;;;6.30;;
74849;SDS011;63397;47.480;19.238;2024-03-23T09:32:19;13.35;;;6.18;;
74849;SDS011;63397;47.480;19.238;2024-03-23T09:35:20;13.18;;;6.32;;
74849;SDS011;63397;47.480;19.238;2024-03-23T09:38:23;11.90;;;5.85;;
74849;SDS011;63397;47.480;19.238;2024-03-23T09:41:25;12.53;;;6.60;;
74849;SDS011;63397;47.480;19.238;2024-03-23T09:44:27;11.68;;;5.60;;
74849;SDS011;63397;47.480;19.238;2024-03-23T09:47:31;12.45;;;5.30;;
74849;SDS011;63397;47.480;19.238;2024-03-23T09:50:33;12.52;;;4.90;;
74849;SDS011;63397;47.480;19.238;2024-03-23T09:53:34;11.15;;;4.90;;
74849;SDS011;63397;47.480;19.238;2024-03-23T09:56:36;8.47;;;4.90;;
74849;SDS011;63397;47.480;19.238;2024-03-23T09:59:38;10.13;;;4.90;;
74849;SDS011;63397;47.480;19.238;2024-03-23T10:02:39;10.40;;;4.82;;
74849;SDS011;63397;47.480;19.238;2024-03-23T10:05:40;12.10;;;5.00;;
74849;SDS011;63397;47.480;19.238;2024-03-23T10:08:42;10.05;;;5.30;;
74849;SDS011;63397;47.480;19.238;2024-03-23T10:11:43;10.43;;;4.70;;
74849;SDS011;63397;47.480;19.238;2024-03-23T10:14:50;8.18;;;4.38;;
74849;SDS011;63397;47.480;19.238;2024-03-23T10:17:51;7.57;;;3.97;;
74849;SDS011;63397;47.480;19.238;2024-03-23T10:24:15;7.47;;;4.10;;
74849;SDS011;63397;47.480;19.238;2024-03-23T10:27:17;7.10;;;3.90;;
74849;SDS011;63397;47.480;19.238;2024-03-23T10:30:20;7.60;;;3.78;;
74849;SDS011;63397;47.480;19.238;2024-03-23T10:33:23;6.65;;;3.40;;
74849;SDS011;63397;47.480;19.238;2024-03-23T10:36:24;9.52;;;4.00;;
74849;SDS011;63397;47.480;19.238;2024-03-23T10:42:38;6.73;;;3.30;;
74849;SDS011;63397;47.480;19.238;2024-03-23T10:45:40;7.05;;;3.70;;
74849;SDS011;63397;47.480;19.238;2024-03-23T10:48:41;7.07;;;3.15;;
74849;SDS011;63397;47.480;19.238;2024-03-23T10:51:44;6.95;;;3.63;;
74849;SDS011;63397;47.480;19.238;2024-03-23T10:54:45;6.50;;;2.88;;
74849;SDS011;63397;47.480;19.238;2024-03-23T10:57:52;6.07;;;3.10;;
74849;SDS011;63397;47.480;19.238;2024-03-23T11:00:56;6.75;;;2.92;;
74849;SDS011;63397;47.480;19.238;2024-03-23T11:03:57;6.45;;;2.75;;
74849;SDS011;63397;47.480;19.238;2024-03-23T11:06:58;8.50;;;3.20;;
74849;SDS011;63397;47.480;19.238;2024-03-23T11:10:00;8.23;;;3.10;;
74849;SDS011;63397;47.480;19.238;2024-03-23T11:13:21;6.63;;;2.90;;
74849;SDS011;63397;47.480;19.238;2024-03-23T11:16:28;6.25;;;3.20;;
74849;SDS011;63397;47.480;19.238;2024-03-23T11:22:38;5.35;;;2.47;;
74849;SDS011;63397;47.480;19.238;2024-03-23T11:25:42;4.82;;;2.83;;
74849;SDS011;63397;47.480;19.238;2024-03-23T11:28:43;6.70;;;2.90;;
74849;SDS011;63397;47.480;19.238;2024-03-23T11:31:52;5.55;;;2.90;;
74849;SDS011;63397;47.480;19.238;2024-03-23T11:34:54;6.68;;;2.85;;
74849;SDS011;63397;47.480;19.238;2024-03-23T11:38:11;6.13;;;2.50;;
74849;SDS011;63397;47.480;19.238;2024-03-23T11:41:12;5.35;;;2.63;;
74849;SDS011;63397;47.480;19.238;2024-03-23T11:44:17;6.40;;;2.87;;
74849;SDS011;63397;47.480;19.238;2024-03-23T11:47:21;5.43;;;2.30;;
74849;SDS011;63397;47.480;19.238;2024-03-23T11:50:23;8.27;;;2.83;;
74849;SDS011;63397;47.480;19.238;2024-03-23T11:53:25;4.55;;;2.28;;
74849;SDS011;63397;47.480;19.238;2024-03-23T11:56:29;5.05;;;2.63;;
74849;SDS011;63397;47.480;19.238;2024-03-23T12:02:34;5.32;;;2.30;;
74849;SDS011;63397;47.480;19.238;2024-03-23T12:05:36;5.38;;;2.45;;
74849;SDS011;63397;47.480;19.238;2024-03-23T12:08:39;4.95;;;2.30;;
74849;SDS011;63397;47.480;19.238;2024-03-23T12:11:40;6.75;;;2.30;;
74849;SDS011;63397;47.480;19.238;2024-03-23T12:14:45;5.17;;;2.50;;
74849;SDS011;63397;47.480;19.238;2024-03-23T12:17:48;4.68;;;2.00;;
74849;SDS011;63397;47.480;19.238;2024-03-23T12:20:50;5.85;;;2.00;;
74849;SDS011;63397;47.480;19.238;2024-03-23T12:23:51;3.97;;;2.08;;
74849;SDS011;63397;47.480;19.238;2024-03-23T12:26:53;5.65;;;2.22;;
74849;SDS011;63397;47.480;19.238;2024-03-23T12:29:54;5.07;;;2.00;;
74849;SDS011;63397;47.480;19.238;2024-03-23T12:32:55;3.50;;;1.90;;
74849;SDS011;63397;47.480;19.238;2024-03-23T12:35:58;5.03;;;2.42;;
74849;SDS011;63397;47.480;19.238;2024-03-23T12:38:59;4.50;;;2.10;;
74849;SDS011;63397;47.480;19.238;2024-03-23T12:42:02;4.53;;;1.95;;
74849;SDS011;63397;47.480;19.238;2024-03-23T12:45:04;4.47;;;2.10;;
74849;SDS011;63397;47.480;19.238;2024-03-23T12:48:07;4.22;;;2.10;;
74849;SDS011;63397;47.480;19.238;2024-03-23T12:51:08;5.97;;;2.55;;
74849;SDS011;63397;47.480;19.238;2024-03-23T12:54:10;9.20;;;2.30;;
74849;SDS011;63397;47.480;19.238;2024-03-23T12:57:11;4.18;;;2.25;;
74849;SDS011;63397;47.480;19.238;2024-03-23T13:00:13;4.03;;;2.30;;
74849;SDS011;63397;47.480;19.238;2024-03-23T13:03:15;4.30;;;2.33;;
74849;SDS011;63397;47.480;19.238;2024-03-23T13:06:17;5.43;;;2.00;;
74849;SDS011;63397;47.480;19.238;2024-03-23T13:09:22;4.03;;;2.28;;
74849;SDS011;63397;47.480;19.238;2024-03-23T13:12:24;4.60;;;2.10;;
74849;SDS011;63397;47.480;19.238;2024-03-23T13:15:33;5.43;;;2.53;;
74849;SDS011;63397;47.480;19.238;2024-03-23T13:18:35;4.60;;;2.30;;
74849;SDS011;63397;47.480;19.238;2024-03-23T13:21:37;5.32;;;2.20;;
74849;SDS011;63397;47.480;19.238;2024-03-23T13:24:38;4.03;;;1.98;;
74849;SDS011;63397;47.480;19.238;2024-03-23T13:27:40;5.82;;;2.53;;
74849;SDS011;63397;47.480;19.238;2024-03-23T13:30:49;4.30;;;2.53;;
74849;SDS011;63397;47.480;19.238;2024-03-23T13:33:50;7.00;;;2.97;;
74849;SDS011;63397;47.480;19.238;2024-03-23T13:36:51;5.53;;;2.83;;
74849;SDS011;63397;47.480;19.238;2024-03-23T13:39:53;5.28;;;2.65;;
74849;SDS011;63397;47.480;19.238;2024-03-23T13:42:55;7.07;;;3.10;;
74849;SDS011;63397;47.480;19.238;2024-03-23T13:45:58;4.57;;;2.20;;
74849;SDS011;63397;47.480;19.238;2024-03-23T13:49:00;4.65;;;2.40;;
74849;SDS011;63397;47.480;19.238;2024-03-23T13:52:01;5.15;;;2.90;;
74849;SDS011;63397;47.480;19.238;2024-03-23T13:55:04;7.95;;;2.88;;
74849;SDS011;63397;47.480;19.238;2024-03-23T13:58:09;5.53;;;2.60;;
74849;SDS011;63397;47.480;19.238;2024-03-23T14:01:16;4.93;;;2.00;;
74849;SDS011;63397;47.480;19.238;2024-03-23T14:04:18;5.28;;;1.80;;
74849;SDS011;63397;47.480;19.238;2024-03-23T14:07:26;3.00;;;1.40;;
74849;SDS011;63397;47.480;19.238;2024-03-23T14:10:27;3.67;;;1.70;;
74849;SDS011;63397;47.480;19.238;2024-03-23T14:13:29;3.78;;;1.40;;
74849;SDS011;63397;47.480;19.238;2024-03-23T14:16:30;4.60;;;1.97;;
74849;SDS011;63397;47.480;19.238;2024-03-23T14:19:33;4.72;;;2.00;;
74849;SDS011;63397;47.480;19.238;2024-03-23T14:22:34;5.68;;;2.40;;
74849;SDS011;63397;47.480;19.238;2024-03-23T14:25:37;4.88;;;2.40;;
74849;SDS011;63397;47.480;19.238;2024-03-23T14:28:39;5.00;;;2.50;;
74849;SDS011;63397;47.480;19.238;2024-03-23T14:31:41;5.13;;;2.70;;
74849;SDS011;63397;47.480;19.238;2024-03-23T14:34:43;5.32;;;2.38;;
74849;SDS011;63397;47.480;19.238;2024-03-23T14:37:45;4.90;;;2.42;;
74849;SDS011;63397;47.480;19.238;2024-03-23T14:40:49;4.20;;;2.10;;
74849;SDS011;63397;47.480;19.238;2024-03-23T14:43:56;4.72;;;2.20;;
74849;SDS011;63397;47.480;19.238;2024-03-23T14:46:58;4.40;;;2.30;;
74849;SDS011;63397;47.480;19.238;2024-03-23T14:50:01;4.43;;;2.22;;
74849;SDS011;63397;47.480;19.238;2024-03-23T14:53:02;4.57;;;1.95;;
74849;SDS011;63397;47.480;19.238;2024-03-23T14:56:03;3.22;;;1.63;;
74849;SDS011;63397;47.480;19.238;2024-03-23T14:59:05;2.83;;;1.40;;
74849;SDS011;63397;47.480;19.238;2024-03-23T15:02:07;4.83;;;1.60;;
74849;SDS011;63397;47.480;19.238;2024-03-23T15:05:10;4.20;;;1.63;;
74849;SDS011;63397;47.480;19.238;2024-03-23T15:08:12;3.72;;;1.85;;
74849;SDS011;63397;47.480;19.238;2024-03-23T15:11:14;3.92;;;1.67;;
74849;SDS011;63397;47.480;19.238;2024-03-23T15:14:16;3.38;;;1.60;;
74849;SDS011;63397;47.480;19.238;2024-03-23T15:17:19;5.80;;;2.13;;
74849;SDS011;63397;47.480;19.238;2024-03-23T15:20:20;4.82;;;1.90;;
74849;SDS011;63397;47.480;19.238;2024-03-23T15:23:22;6.40;;;1.92;;
74849;SDS011;63397;47.480;19.238;2024-03-23T15:26:23;4.10;;;1.80;;
74849;SDS011;63397;47.480;19.238;2024-03-23T15:29:27;3.55;;;1.75;;
74849;SDS011;63397;47.480;19.238;2024-03-23T15:32:28;6.10;;;1.97;;
74849;SDS011;63397;47.480;19.238;2024-03-23T15:35:29;3.90;;;1.80;;
74849;SDS011;63397;47.480;19.238;2024-03-23T15:38:31;4.68;;;2.03;;
74849;SDS011;63397;47.480;19.238;2024-03-23T15:41:33;3.92;;;1.83;;
74849;SDS011;63397;47.480;19.238;2024-03-23T15:44:37;4.82;;;1.88;;
74849;SDS011;63397;47.480;19.238;2024-03-23T15:47:39;3.50;;;1.70;;
74849;SDS011;63397;47.480;19.238;2024-03-23T15:50:40;3.65;;;1.60;;
74849;SDS011;63397;47.480;19.238;2024-03-23T15:53:41;4.13;;;1.98;;
74849;SDS011;63397;47.480;19.238;2024-03-23T15:56:44;4.05;;;1.75;;
74849;SDS011;63397;47.480;19.238;2024-03-23T15:59:46;4.25;;;2.10;;
74849;SDS011;63397;47.480;19.238;2024-03-23T16:02:48;5.33;;;2.10;;
74849;SDS011;63397;47.480;19.238;2024-03-23T16:08:58;7.10;;;2.35;;
74849;SDS011;63397;47.480;19.238;2024-03-23T16:12:00;5.03;;;2.03;;
74849;SDS011;63397;47.480;19.238;2024-03-23T16:15:01;4.70;;;2.00;;
74849;SDS011;63397;47.480;19.238;2024-03-23T16:18:03;5.87;;;2.13;;
74849;SDS011;63397;47.480;19.238;2024-03-23T16:21:04;4.90;;;2.08;;
74849;SDS011;63397;47.480;19.238;2024-03-23T16:24:07;4.82;;;2.08;;
74849;SDS011;63397;47.480;19.238;2024-03-23T16:27:09;5.97;;;1.98;;
74849;SDS011;63397;47.480;19.238;2024-03-23T16:30:11;4.45;;;2.30;;
74849;SDS011;63397;47.480;19.238;2024-03-23T16:33:12;6.57;;;2.60;;
74849;SDS011;63397;47.480;19.238;2024-03-23T16:36:13;6.78;;;2.33;;
74849;SDS011;63397;47.480;19.238;2024-03-23T16:39:15;5.47;;;2.13;;
74849;SDS011;63397;47.480;19.238;2024-03-23T16:42:16;5.93;;;2.65;;
74849;SDS011;63397;47.480;19.238;2024-03-23T16:45:17;7.13;;;2.45;;
74849;SDS011;63397;47.480;19.238;2024-03-23T16:48:19;5.13;;;2.33;;
74849;SDS011;63397;47.480;19.238;2024-03-23T16:51:20;6.35;;;2.50;;
74849;SDS011;63397;47.480;19.238;2024-03-23T16:54:23;5.97;;;2.35;;
74849;SDS011;63397;47.480;19.238;2024-03-23T16:57:24;5.18;;;2.10;;
74849;SDS011;63397;47.480;19.238;2024-03-23T17:00:26;6.18;;;2.38;;
74849;SDS011;63397;47.480;19.238;2024-03-23T17:03:27;7.13;;;2.43;;
74849;SDS011;63397;47.480;19.238;2024-03-23T17:06:29;5.53;;;2.22;;
74849;SDS011;63397;47.480;19.238;2024-03-23T17:09:30;5.70;;;2.42;;
74849;SDS011;63397;47.480;19.238;2024-03-23T17:12:32;6.18;;;2.55;;
74849;SDS011;63397;47.480;19.238;2024-03-23T17:15:41;7.63;;;2.97;;
74849;SDS011;63397;47.480;19.238;2024-03-23T17:18:46;8.13;;;2.80;;
74849;SDS011;63397;47.480;19.238;2024-03-23T17:21:47;6.20;;;2.15;;
74849;SDS011;63397;47.480;19.238;2024-03-23T17:24:51;3.25;;;1.20;;
74849;SDS011;63397;47.480;19.238;2024-03-23T17:27:53;2.78;;;0.90;;
74849;SDS011;63397;47.480;19.238;2024-03-23T17:30:54;1.73;;;0.60;;
74849;SDS011;63397;47.480;19.238;2024-03-23T17:33:55;6.43;;;1.47;;
74849;SDS011;63397;47.480;19.238;2024-03-23T17:36:57;0.98;;;0.38;;
74849;SDS011;63397;47.480;19.238;2024-03-23T17:39:58;5.18;;;0.30;;
74849;SDS011;63397;47.480;19.238;2024-03-23T17:43:00;0.60;;;0.35;;
74849;SDS011;63397;47.480;19.238;2024-03-23T17:46:01;1.02;;;0.20;;
74849;SDS011;63397;47.480;19.238;2024-03-23T17:49:03;3.33;;;0.30;;
74849;SDS011;63397;47.480;19.238;2024-03-23T17:52:07;0.93;;;0.30;;
74849;SDS011;63397;47.480;19.238;2024-03-23T17:55:12;1.58;;;0.30;;
74849;SDS011;63397;47.480;19.238;2024-03-23T17:58:17;1.40;;;0.20;;
74849;SDS011;63397;47.480;19.238;2024-03-23T18:01:21;3.08;;;0.60;;
74849;SDS011;63397;47.480;19.238;2024-03-23T18:04:23;1.13;;;0.30;;
74849;SDS011;63397;47.480;19.238;2024-03-23T18:07:27;2.88;;;0.22;;
74849;SDS011;63397;47.480;19.238;2024-03-23T18:10:29;0.70;;;0.20;;
74849;SDS011;63397;47.480;19.238;2024-03-23T18:13:31;2.03;;;0.45;;
74849;SDS011;63397;47.480;19.238;2024-03-23T18:16:32;5.50;;;0.43;;
74849;SDS011;63397;47.480;19.238;2024-03-23T18:19:34;1.17;;;0.23;;
74849;SDS011;63397;47.480;19.238;2024-03-23T18:22:38;0.80;;;0.30;;
74849;SDS011;63397;47.480;19.238;2024-03-23T18:25:40;0.93;;;0.30;;
74849;SDS011;63397;47.480;19.238;2024-03-23T18:28:48;0.90;;;0.20;;
74849;SDS011;63397;47.480;19.238;2024-03-23T18:31:51;1.20;;;0.45;;
74849;SDS011;63397;47.480;19.238;2024-03-23T18:34:53;1.07;;;0.20;;
74849;SDS011;63397;47.480;19.238;2024-03-23T18:37:55;1.83;;;0.35;;
74849;SDS011;63397;47.480;19.238;2024-03-23T18:40:58;0.82;;;0.20;;
74849;SDS011;63397;47.480;19.238;2024-03-23T18:43:59;0.50;;;0.20;;
74849;SDS011;63397;47.480;19.238;2024-03-23T18:47:02;0.50;;;0.10;;
74849;SDS011;63397;47.480;19.238;2024-03-23T18:50:05;1.03;;;0.20;;
74849;SDS011;63397;47.480;19.238;2024-03-23T18:53:07;0.30;;;0.10;;
74849;SDS011;63397;47.480;19.238;2024-03-23T18:56:10;0.25;;;0.10;;
74849;SDS011;63397;47.480;19.238;2024-03-23T18:59:13;0.45;;;0.20;;
74849;SDS011;63397;47.480;19.238;2024-03-23T19:02:15;0.60;;;0.20;;
74849;SDS011;63397;47.480;19.238;2024-03-23T19:05:17;1.07;;;0.30;;